createdAt,value
2022-11-14T00:01:15.953Z,28.03
2022-11-14T00:03:43.899Z,26.33
2022-11-14T00:06:12.942Z,27.13
2022-11-14T00:08:40.814Z,27.73
2022-11-14T00:11:10.653Z,28.57
2022-11-14T00:13:38.482Z,28.57
2022-11-14T00:16:06.527Z,29.67
2022-11-14T00:18:34.643Z,29.30
2022-11-14T00:21:02.495Z,29.13
2022-11-14T00:23:30.359Z,27.97
2022-11-14T00:25:58.401Z,28.60
2022-11-14T00:28:27.876Z,29.13
2022-11-14T00:30:56.069Z,29.50
2022-11-14T00:33:24.083Z,29.27
2022-11-14T00:35:53.879Z,28.03
2022-11-14T00:38:22.136Z,31.20
2022-11-14T00:40:50.143Z,30.37
2022-11-14T00:43:18.067Z,31.27
2022-11-14T00:45:48.294Z,29.30
2022-11-14T00:48:16.909Z,29.50
2022-11-14T00:50:45.289Z,28.93
2022-11-14T00:53:13.382Z,31.03
2022-11-14T00:55:41.424Z,30.13
2022-11-14T00:58:09.462Z,30.63
2022-11-14T01:00:37.478Z,31.67
2022-11-14T01:03:06.822Z,31.13
2022-11-14T01:05:34.637Z,30.27
2022-11-14T01:08:02.552Z,30.77
2022-11-14T01:10:30.665Z,31.30
2022-11-14T01:12:58.544Z,30.13
2022-11-14T01:15:26.517Z,30.83
2022-11-14T01:17:54.489Z,28.50
2022-11-14T01:20:23.953Z,32.03
2022-11-14T01:22:51.799Z,31.67
2022-11-14T01:25:19.874Z,31.57
2022-11-14T01:27:47.791Z,30.27
2022-11-14T01:30:15.770Z,30.83
2022-11-14T01:32:43.814Z,29.27
2022-11-14T01:35:11.733Z,30.77
2022-11-14T01:37:41.080Z,31.00
2022-11-14T01:40:10.249Z,31.87
2022-11-14T01:42:38.076Z,33.27
2022-11-14T01:45:39.361Z,30.87
2022-11-14T01:48:19.193Z,31.70
2022-11-14T01:50:48.294Z,32.00
2022-11-14T01:53:17.834Z,30.53
2022-11-14T01:55:46.416Z,31.77
2022-11-14T01:58:15.761Z,31.37
2022-11-14T02:00:44.307Z,33.97
2022-11-14T02:03:14.726Z,32.70
2022-11-14T02:05:45.427Z,31.80
2022-11-14T02:08:15.953Z,32.97
2022-11-14T02:10:45.184Z,32.03
2022-11-14T02:13:13.054Z,32.00
2022-11-14T02:15:41.701Z,32.03
2022-11-14T02:18:09.611Z,32.67
2022-11-14T02:20:43.411Z,32.07
2022-11-14T02:23:11.993Z,33.27
2022-11-14T02:25:40.614Z,31.13
2022-11-14T02:28:10.604Z,31.47
2022-11-14T02:30:38.756Z,31.87
2022-11-14T02:33:11.021Z,32.50
2022-11-14T02:35:40.938Z,32.30
2022-11-14T02:38:08.859Z,30.57
2022-11-14T02:40:36.787Z,31.97
2022-11-14T02:43:04.843Z,31.73
2022-11-14T02:45:32.694Z,33.13
2022-11-14T02:48:00.686Z,33.23
2022-11-14T02:50:28.853Z,33.20
2022-11-14T02:52:58.047Z,31.47
2022-11-14T02:55:26.011Z,31.63
2022-11-14T02:57:53.985Z,31.57
2022-11-14T03:00:21.936Z,31.53
2022-11-14T03:02:49.830Z,31.03
2022-11-14T03:05:18.080Z,32.60
2022-11-14T03:07:45.904Z,31.97
2022-11-14T03:10:15.469Z,31.70
2022-11-14T03:12:43.428Z,32.93
2022-11-14T03:15:12.298Z,33.37
2022-11-14T03:17:40.360Z,32.50
2022-11-14T03:20:09.808Z,33.33
2022-11-14T03:22:37.691Z,32.77
2022-11-14T03:25:06.514Z,33.63
2022-11-14T03:27:35.987Z,32.97
2022-11-14T03:30:03.978Z,32.63
2022-11-14T03:32:31.830Z,34.00
2022-11-14T03:35:00.057Z,34.63
2022-11-14T03:37:27.922Z,33.43
2022-11-14T03:39:55.759Z,34.57
2022-11-14T03:42:23.782Z,33.63
2022-11-14T03:44:53.016Z,34.83
2022-11-14T03:47:20.871Z,35.77
2022-11-14T03:49:48.820Z,35.30
2022-11-14T03:52:16.713Z,34.53
2022-11-14T03:54:44.536Z,33.77
2022-11-14T03:57:12.528Z,34.10
2022-11-14T03:59:40.360Z,32.17
2022-11-14T04:02:09.548Z,33.27
2022-11-14T04:04:37.556Z,33.53
2022-11-14T04:07:06.467Z,34.50
2022-11-14T04:09:34.376Z,33.03
2022-11-14T04:12:02.334Z,32.23
2022-11-14T04:14:30.131Z,34.80
2022-11-14T04:16:57.985Z,33.63
2022-11-14T04:19:27.230Z,33.80
2022-11-14T04:21:55.117Z,33.90
2022-11-14T04:24:22.909Z,34.27
2022-11-14T04:26:50.777Z,32.10
2022-11-14T04:29:18.615Z,33.90
2022-11-14T04:31:46.434Z,33.30
2022-11-14T04:34:14.331Z,32.40
2022-11-14T04:36:43.571Z,34.00
2022-11-14T04:39:11.450Z,33.50
2022-11-14T04:41:39.496Z,31.83
2022-11-14T04:44:07.500Z,32.67
2022-11-14T04:46:35.324Z,33.97
2022-11-14T04:49:03.606Z,32.60
2022-11-14T04:51:31.473Z,34.80
2022-11-14T04:54:00.684Z,32.47
2022-11-14T04:56:29.365Z,31.50
2022-11-14T04:58:57.208Z,33.17
2022-11-14T05:01:25.162Z,33.80
2022-11-14T05:03:53.134Z,33.50
2022-11-14T05:06:21.003Z,34.30
2022-11-14T05:08:49.560Z,33.57
2022-11-14T05:11:23.183Z,33.53
2022-11-14T05:13:54.537Z,33.17
2022-11-14T05:16:22.555Z,32.27
2022-11-14T05:18:50.475Z,33.60
2022-11-14T05:21:18.309Z,34.87
2022-11-14T05:23:46.306Z,33.93
2022-11-14T05:26:17.048Z,33.43
2022-11-14T05:28:46.643Z,35.00
2022-11-14T05:31:17.853Z,34.00
2022-11-14T05:33:46.788Z,37.20
2022-11-14T05:36:16.974Z,34.47
2022-11-14T05:38:45.115Z,36.20
2022-11-14T05:41:15.204Z,34.67
2022-11-14T05:43:43.587Z,34.97
2022-11-14T05:46:16.035Z,32.57
2022-11-14T05:48:44.655Z,33.77
2022-11-14T05:51:14.116Z,33.20
2022-11-14T05:53:42.112Z,34.87
2022-11-14T05:56:13.056Z,36.13
2022-11-14T05:58:41.255Z,36.87
2022-11-14T06:01:12.149Z,35.17
2022-11-14T06:03:43.248Z,36.47
2022-11-14T06:06:13.700Z,36.60
2022-11-14T06:08:42.514Z,35.40
2022-11-14T06:11:11.912Z,36.83
2022-11-14T06:13:40.170Z,36.13
2022-11-14T06:16:11.181Z,35.80
2022-11-14T06:18:39.610Z,35.73
2022-11-14T06:21:12.498Z,35.27
2022-11-14T06:23:40.859Z,36.90
2022-11-14T06:26:13.955Z,35.23
2022-11-14T06:28:41.842Z,34.63
2022-11-14T06:31:09.668Z,35.70
2022-11-14T06:33:38.430Z,36.53
2022-11-14T06:36:09.809Z,35.30
2022-11-14T06:38:39.528Z,35.37
2022-11-14T06:41:08.963Z,35.53
2022-11-14T06:43:38.127Z,35.43
2022-11-14T06:46:06.792Z,35.37
2022-11-14T06:48:35.362Z,35.07
2022-11-14T06:51:05.526Z,35.47
2022-11-14T06:53:36.927Z,35.60
2022-11-14T06:56:06.928Z,36.47
2022-11-14T06:58:38.985Z,35.77
2022-11-14T07:01:08.535Z,35.80
2022-11-14T07:03:36.349Z,37.30
2022-11-14T07:06:04.949Z,36.03
2022-11-14T07:08:35.146Z,36.17
2022-11-14T07:11:04.056Z,37.63
2022-11-14T07:13:32.566Z,37.70
2022-11-14T07:16:00.966Z,37.17
2022-11-14T07:18:31.414Z,37.20
2022-11-14T07:21:00.492Z,38.63
2022-11-14T07:23:28.887Z,37.03
2022-11-14T07:26:02.030Z,37.70
2022-11-14T07:28:30.457Z,38.33
2022-11-14T07:30:58.589Z,37.00
2022-11-14T07:33:26.446Z,37.13
2022-11-14T07:35:54.302Z,37.17
2022-11-14T07:38:24.488Z,38.73
2022-11-14T07:40:59.551Z,38.00
2022-11-14T07:43:29.764Z,38.67
2022-11-14T07:46:00.824Z,39.53
2022-11-14T07:48:29.145Z,39.80
2022-11-14T07:51:00.494Z,40.67
2022-11-14T07:53:28.706Z,39.97
2022-11-14T07:55:56.619Z,39.73
2022-11-14T07:58:25.124Z,37.83
2022-11-14T08:00:54.539Z,39.17
2022-11-14T08:03:22.542Z,38.50
2022-11-14T08:05:50.420Z,37.40
2022-11-14T08:08:18.390Z,39.40
2022-11-14T08:10:46.211Z,39.90
2022-11-14T08:16:12.326Z,37.80
2022-11-14T08:18:42.540Z,40.27
2022-11-14T08:21:10.583Z,36.87
2022-11-14T08:23:38.814Z,39.10
2022-11-14T08:26:07.113Z,42.63
2022-11-14T08:28:35.160Z,39.50
2022-11-14T08:31:03.560Z,37.53
2022-11-14T08:33:33.489Z,38.17
2022-11-14T08:36:02.636Z,36.37
2022-11-14T08:38:32.793Z,37.43
2022-11-14T08:41:01.402Z,37.70
2022-11-14T08:43:29.240Z,36.97
2022-11-14T08:46:01.570Z,38.33
2022-11-14T08:48:30.933Z,37.30
2022-11-14T08:51:04.595Z,37.20
2022-11-14T08:53:32.966Z,37.10
2022-11-14T08:56:00.825Z,37.37
2022-11-14T08:58:31.182Z,36.57
2022-11-14T09:01:03.274Z,37.63
2022-11-14T09:03:37.094Z,37.60
2022-11-14T09:06:07.479Z,35.90
2022-11-14T09:08:35.415Z,37.33
2022-11-14T09:11:09.950Z,37.60
2022-11-14T09:13:38.283Z,38.50
2022-11-14T09:16:06.984Z,37.47
2022-11-14T09:18:35.031Z,37.83
2022-11-14T09:21:03.744Z,37.07
2022-11-14T09:23:33.565Z,36.53
2022-11-14T09:26:06.309Z,39.03
2022-11-14T09:28:34.984Z,38.43
2022-11-14T09:31:03.177Z,37.40
2022-11-14T09:33:31.540Z,37.50
2022-11-14T09:35:59.974Z,37.20
2022-11-14T09:38:28.341Z,35.30
2022-11-14T09:41:11.707Z,38.20
2022-11-14T09:43:58.136Z,39.70
2022-11-14T09:46:32.945Z,38.87
2022-11-14T09:49:01.157Z,38.47
2022-11-14T09:51:34.299Z,37.57
2022-11-14T09:54:12.670Z,36.20
2022-11-14T09:56:42.101Z,36.07
2022-11-14T09:59:11.929Z,35.53
2022-11-14T10:01:50.724Z,36.47
2022-11-14T10:04:27.806Z,37.23
2022-11-14T10:07:07.923Z,35.93
2022-11-14T10:09:49.647Z,36.70
2022-11-14T10:12:23.876Z,36.57
2022-11-14T10:15:11.884Z,36.67
2022-11-14T10:18:16.867Z,36.17
2022-11-14T10:20:50.253Z,36.00
2022-11-14T10:23:31.511Z,37.07
2022-11-14T10:26:10.308Z,34.30
2022-11-14T10:28:54.046Z,33.40
2022-11-14T10:31:31.383Z,33.70
2022-11-14T10:34:06.999Z,34.30
2022-11-14T10:36:48.358Z,33.77
2022-11-14T10:39:21.535Z,33.07
2022-11-14T10:42:00.966Z,35.50
2022-11-14T10:44:38.101Z,33.27
2022-11-14T10:47:12.606Z,33.17
2022-11-14T10:49:41.134Z,31.90
2022-11-14T10:52:15.933Z,32.57
2022-11-14T10:54:47.457Z,32.03
2022-11-14T10:57:17.586Z,32.47
2022-11-14T10:59:47.418Z,32.93
2022-11-14T11:02:15.901Z,32.43
2022-11-14T11:04:46.307Z,33.67
2022-11-14T11:07:41.823Z,33.03
2022-11-14T11:10:39.545Z,33.23
2022-11-14T11:13:07.440Z,32.70
2022-11-14T11:15:43.573Z,34.23
2022-11-14T11:18:27.162Z,33.90
2022-11-14T11:21:07.958Z,31.17
2022-11-14T11:23:36.343Z,33.17
2022-11-14T11:26:07.960Z,32.47
2022-11-14T11:28:37.744Z,32.63
2022-11-14T11:31:08.462Z,31.87
2022-11-14T11:33:37.938Z,32.43
2022-11-14T11:36:12.721Z,31.50
2022-11-14T11:38:41.854Z,32.80
2022-11-14T11:42:02.331Z,30.70
2022-11-14T11:44:17.102Z,31.47
2022-11-14T11:46:53.505Z,30.47
2022-11-14T11:49:32.249Z,31.00
2022-11-14T11:52:07.039Z,30.60
2022-11-14T11:54:52.623Z,30.60
2022-11-14T11:57:25.606Z,31.67
2022-11-14T11:59:59.042Z,31.27
2022-11-14T12:02:28.930Z,29.13
2022-11-14T12:04:59.640Z,30.77
2022-11-14T12:07:39.682Z,30.10
2022-11-14T12:10:16.522Z,29.53
2022-11-14T12:13:11.141Z,29.50
2022-11-14T12:15:49.693Z,29.90
2022-11-14T12:18:35.869Z,30.57
2022-11-14T12:21:19.809Z,30.10
2022-11-14T12:24:18.715Z,30.23
2022-11-14T12:26:58.746Z,30.60
2022-11-14T12:29:49.053Z,31.20
2022-11-14T12:32:20.834Z,30.73
2022-11-14T12:34:51.252Z,32.00
2022-11-14T12:37:24.486Z,30.60
2022-11-14T12:40:01.459Z,31.10
2022-11-14T12:42:29.719Z,30.57
2022-11-14T12:44:57.596Z,31.10
2022-11-14T12:47:27.987Z,29.23
2022-11-14T12:50:36.447Z,30.00
2022-11-14T12:53:04.548Z,32.30
2022-11-14T12:55:55.786Z,31.50
2022-11-14T12:58:51.226Z,31.57
2022-11-14T13:01:35.020Z,30.77
2022-11-14T13:04:26.474Z,32.70
2022-11-14T13:07:32.788Z,45.33
2022-11-14T13:10:27.717Z,62.53
2022-11-14T13:13:25.631Z,45.50
2022-11-14T13:16:12.938Z,33.47
2022-11-14T13:19:11.222Z,32.13
2022-11-14T13:21:48.719Z,31.43
2022-11-14T13:24:19.172Z,31.83
2022-11-14T13:26:49.587Z,31.73
2022-11-14T13:29:50.576Z,33.27
2022-11-14T13:33:06.183Z,31.80
2022-11-14T13:35:44.114Z,32.90
2022-11-14T13:38:50.790Z,33.00
2022-11-14T13:41:55.066Z,33.10
2022-11-14T13:44:59.663Z,32.27
2022-11-14T13:47:46.757Z,32.60
2022-11-14T13:50:17.272Z,31.83
2022-11-14T13:52:46.783Z,29.23
2022-11-14T13:55:29.277Z,30.33
2022-11-14T13:58:10.120Z,31.63
2022-11-14T14:01:06.796Z,31.67
2022-11-14T14:03:50.515Z,32.40
2022-11-14T14:06:33.344Z,31.80
2022-11-14T14:09:20.850Z,29.97
2022-11-14T14:12:01.322Z,29.70
2022-11-14T14:14:44.789Z,30.13
2022-11-14T14:17:18.997Z,29.17
2022-11-14T14:20:02.890Z,30.57
2022-11-14T14:22:39.433Z,28.90
2022-11-14T14:25:20.020Z,30.97
2022-11-14T14:27:56.800Z,29.53
2022-11-14T14:30:24.773Z,29.83
2022-11-14T14:33:17.779Z,30.27
2022-11-14T14:35:53.173Z,29.30
2022-11-14T14:38:26.092Z,30.37
2022-11-14T14:40:56.739Z,30.13
2022-11-14T14:43:30.181Z,30.50
2022-11-14T14:45:58.555Z,29.63
2022-11-14T14:48:29.376Z,30.40
2022-11-14T14:51:00.316Z,29.60
2022-11-14T14:53:30.997Z,31.17
2022-11-14T14:56:00.523Z,31.37
2022-11-14T14:58:30.867Z,31.30
2022-11-14T15:01:01.581Z,31.17
2022-11-14T15:03:36.719Z,32.70
2022-11-14T15:06:13.226Z,31.10
2022-11-14T15:08:41.332Z,30.30
2022-11-14T15:11:09.595Z,31.70
2022-11-14T15:13:38.962Z,30.27
2022-11-14T15:16:09.650Z,31.03
2022-11-14T15:18:38.733Z,31.70
2022-11-14T15:21:15.594Z,31.60
2022-11-14T15:23:47.192Z,32.77
2022-11-14T15:26:18.368Z,30.47
2022-11-14T15:28:46.611Z,33.97
2022-11-14T15:31:21.140Z,31.67
2022-11-14T15:34:03.326Z,31.70
2022-11-14T15:36:32.692Z,31.53
2022-11-14T15:39:04.099Z,30.77
2022-11-14T15:41:32.597Z,31.00
2022-11-14T15:44:05.462Z,31.67
2022-11-14T15:46:44.835Z,30.57
2022-11-14T15:49:22.028Z,31.63
2022-11-14T15:51:55.486Z,30.57
2022-11-14T15:54:28.760Z,31.20
2022-11-14T15:56:58.693Z,31.60
2022-11-14T15:59:27.883Z,31.37
2022-11-14T16:02:00.271Z,30.37
2022-11-14T16:04:33.717Z,30.87
2022-11-14T16:07:03.245Z,32.87
2022-11-14T16:09:31.108Z,29.77
2022-11-14T16:11:59.314Z,30.27
2022-11-14T16:14:27.508Z,30.23
2022-11-14T16:16:55.658Z,31.17
2022-11-14T16:19:23.842Z,32.30
2022-11-14T16:21:52.032Z,32.43
2022-11-14T16:24:22.917Z,31.73
2022-11-14T16:26:51.764Z,31.00
2022-11-14T16:29:21.487Z,31.70
2022-11-14T16:31:51.975Z,32.50
2022-11-14T16:34:23.909Z,31.83
2022-11-14T16:36:59.481Z,30.37
2022-11-14T16:39:29.373Z,31.60
2022-11-14T16:42:03.143Z,32.23
2022-11-14T16:44:34.588Z,31.10
2022-11-14T16:47:07.206Z,30.40
2022-11-14T16:49:35.171Z,30.10
2022-11-14T16:52:07.173Z,30.90
2022-11-14T16:54:41.226Z,30.40
2022-11-14T16:57:09.437Z,30.90
2022-11-14T16:59:39.211Z,31.37
2022-11-14T17:02:07.450Z,30.37
2022-11-14T17:04:35.581Z,30.47
2022-11-14T17:07:03.515Z,29.77
2022-11-14T17:09:31.427Z,31.77
2022-11-14T17:12:00.965Z,31.37
2022-11-14T17:14:29.010Z,31.37
2022-11-14T17:17:04.685Z,31.60
2022-11-14T17:19:32.727Z,32.07
2022-11-14T17:22:00.764Z,31.73
2022-11-14T17:24:31.717Z,30.53
2022-11-14T17:27:03.352Z,30.87
2022-11-14T17:29:31.479Z,30.87
2022-11-14T17:31:59.550Z,30.90
2022-11-14T17:34:27.640Z,31.13
2022-11-14T17:36:55.680Z,29.73
2022-11-14T17:39:23.729Z,28.77
2022-11-14T17:41:51.726Z,32.20
2022-11-14T17:44:21.164Z,29.37
2022-11-14T17:46:49.079Z,31.13
2022-11-14T17:49:17.096Z,30.20
2022-11-14T17:51:45.196Z,28.60
2022-11-14T17:54:13.192Z,30.77
2022-11-14T17:56:48.567Z,31.30
2022-11-14T17:59:20.577Z,29.93
2022-11-14T18:01:48.722Z,31.07
2022-11-14T18:04:16.801Z,30.17
2022-11-14T18:06:44.655Z,30.93
2022-11-14T18:09:14.847Z,29.53
2022-11-14T18:11:42.742Z,29.50
2022-11-14T18:14:10.747Z,29.67
2022-11-14T18:17:10.436Z,28.90
2022-11-14T18:19:28.704Z,28.73
2022-11-14T18:21:56.859Z,29.83
2022-11-14T18:24:24.946Z,29.33
2022-11-14T18:26:53.496Z,31.00
2022-11-14T18:29:21.544Z,29.47
2022-11-14T18:31:51.004Z,30.47
2022-11-14T18:34:19.723Z,30.37
2022-11-14T18:36:47.731Z,30.23
2022-11-14T18:39:15.613Z,30.33
2022-11-14T18:41:43.441Z,30.87
2022-11-14T18:44:11.439Z,29.67
2022-11-14T18:46:39.671Z,28.90
2022-11-14T18:49:09.114Z,29.83
2022-11-14T18:51:42.328Z,30.53
2022-11-14T18:54:12.794Z,29.77
2022-11-14T18:56:41.339Z,28.30
2022-11-14T18:59:10.128Z,28.10
2022-11-14T19:01:38.250Z,27.73
2022-11-14T19:04:09.777Z,28.87
2022-11-14T19:06:39.362Z,28.80
2022-11-14T19:09:11.371Z,26.90
2022-11-14T19:11:56.945Z,28.97
2022-11-14T19:14:25.324Z,29.10
2022-11-14T19:16:53.282Z,28.47
2022-11-14T19:19:22.682Z,27.63
2022-11-14T19:21:51.131Z,27.40
2022-11-14T19:24:19.585Z,29.67
2022-11-14T19:26:47.669Z,28.33
2022-11-14T19:29:15.585Z,29.57
2022-11-14T19:31:44.401Z,29.33
2022-11-14T19:34:12.367Z,28.23
2022-11-14T19:39:30.204Z,26.83
2022-11-14T19:41:58.307Z,26.83
2022-11-14T19:44:26.228Z,28.67
2022-11-14T19:46:54.292Z,27.30
2022-11-14T19:49:22.308Z,28.03
2022-11-14T19:51:51.630Z,27.63
2022-11-14T19:54:19.571Z,27.77
2022-11-14T19:56:47.477Z,27.53
2022-11-14T19:59:17.994Z,27.70
2022-11-14T20:01:55.237Z,27.47
2022-11-14T20:04:23.608Z,28.90
2022-11-14T20:06:53.091Z,27.03
2022-11-14T20:09:21.127Z,28.80
2022-11-14T20:11:49.547Z,25.97
2022-11-14T20:14:17.748Z,28.37
2022-11-14T20:16:46.829Z,27.37
2022-11-14T20:19:14.831Z,28.63
2022-11-14T20:21:43.427Z,26.53
2022-11-14T20:24:15.596Z,28.03
2022-11-14T20:26:43.786Z,27.43
2022-11-14T20:29:11.659Z,29.20
2022-11-14T20:31:39.963Z,27.03
2022-11-14T20:34:08.266Z,27.37
2022-11-14T20:37:08.604Z,26.50
2022-11-14T20:39:25.744Z,28.30
2022-11-14T20:41:53.904Z,29.20
2022-11-14T20:44:21.798Z,29.07
2022-11-14T20:46:49.871Z,27.97
2022-11-14T20:49:17.887Z,29.00
2022-11-14T20:51:45.771Z,30.33
2022-11-14T20:54:13.860Z,28.93
2022-11-14T20:56:43.097Z,27.40
2022-11-14T20:59:11.077Z,27.57
2022-11-14T21:01:43.761Z,29.00
2022-11-14T21:04:12.256Z,27.23
2022-11-14T21:06:40.935Z,28.83
2022-11-14T21:09:09.370Z,27.27
2022-11-14T21:11:37.222Z,29.53
2022-11-14T21:14:06.595Z,28.93
2022-11-14T21:16:36.522Z,28.10
2022-11-14T21:19:05.805Z,28.53
2022-11-14T21:21:36.276Z,29.07
2022-11-14T21:24:04.747Z,28.13
2022-11-14T21:26:34.734Z,29.53
2022-11-14T21:29:05.959Z,29.00
2022-11-14T21:31:37.019Z,29.90
2022-11-14T21:34:07.286Z,29.50
2022-11-14T21:36:44.755Z,31.00
2022-11-14T21:39:15.275Z,28.17
2022-11-14T21:41:43.928Z,30.50
2022-11-14T21:44:13.685Z,29.20
2022-11-14T21:46:43.543Z,29.67
2022-11-14T21:49:11.556Z,29.07
2022-11-14T21:51:39.357Z,30.33
2022-11-14T21:54:07.340Z,28.87
2022-11-14T21:56:37.033Z,30.80
2022-11-14T21:59:15.834Z,28.57
2022-11-14T22:02:04.926Z,28.83
2022-11-14T22:04:33.440Z,27.97
2022-11-14T22:07:04.780Z,28.80
2022-11-14T22:09:33.839Z,28.90
2022-11-14T22:12:02.265Z,29.13
2022-11-14T22:14:30.444Z,27.57
2022-11-14T22:16:59.885Z,28.93
2022-11-14T22:19:27.791Z,26.67
2022-11-14T22:21:55.806Z,28.13
2022-11-14T22:24:24.104Z,29.50
2022-11-14T22:26:51.966Z,28.77
2022-11-14T22:29:19.906Z,28.97
2022-11-14T22:31:53.141Z,28.50
2022-11-14T22:34:22.402Z,26.97
2022-11-14T22:36:50.282Z,28.10
2022-11-14T22:39:18.713Z,27.57
2022-11-14T22:41:46.650Z,28.40
2022-11-14T22:44:14.533Z,29.03
2022-11-14T22:46:42.434Z,28.37
2022-11-14T22:49:10.290Z,27.83
2022-11-14T22:51:39.537Z,29.40
2022-11-14T22:54:07.553Z,28.57
2022-11-14T22:56:35.434Z,27.77
2022-11-14T22:59:03.543Z,28.97
2022-11-14T23:01:33.012Z,28.80
2022-11-14T23:04:02.891Z,28.70
2022-11-14T23:06:32.462Z,29.03
2022-11-14T23:09:02.445Z,27.83
2022-11-14T23:11:32.397Z,28.20
2022-11-14T23:14:01.930Z,28.07
2022-11-14T23:16:31.784Z,27.53
2022-11-14T23:19:01.820Z,28.07
2022-11-14T23:21:31.745Z,27.77
2022-11-14T23:24:02.920Z,28.47
2022-11-14T23:26:32.587Z,27.97
2022-11-14T23:29:00.774Z,27.80
2022-11-14T23:31:28.794Z,27.63
2022-11-14T23:33:58.140Z,27.97
2022-11-14T23:36:26.451Z,27.33
2022-11-14T23:38:54.603Z,28.13
2022-11-14T23:41:26.737Z,28.23
2022-11-14T23:43:54.979Z,28.07
2022-11-14T23:46:23.798Z,26.27
2022-11-14T23:48:53.409Z,27.10
2022-11-14T23:51:21.465Z,26.80
2022-11-14T23:53:49.673Z,26.53
2022-11-14T23:56:17.546Z,27.60
2022-11-14T23:58:46.860Z,28.93
